createdAt,value
2017-01-13T00:00:16.835Z,0
2017-01-13T00:00:57.373Z,0
2017-01-13T00:01:37.857Z,0
2017-01-13T00:02:18.340Z,0
2017-01-13T00:02:58.835Z,0
2017-01-13T00:03:39.330Z,0
2017-01-13T00:04:19.821Z,0
2017-01-13T00:05:00.311Z,0
2017-01-13T00:05:40.806Z,0
2017-01-13T00:06:21.298Z,0
2017-01-13T00:07:01.786Z,0
2017-01-13T00:07:42.276Z,0
2017-01-13T00:08:22.771Z,0
2017-01-13T00:09:03.267Z,0
2017-01-13T00:09:43.743Z,0
2017-01-13T00:10:24.234Z,0
2017-01-13T00:11:04.719Z,0
2017-01-13T00:11:45.210Z,0
2017-01-13T00:12:25.707Z,0
2017-01-13T00:13:06.198Z,0
2017-01-13T00:13:46.697Z,0
2017-01-13T00:14:27.194Z,0
2017-01-13T00:15:07.680Z,0
2017-01-13T00:15:48.189Z,0
2017-01-13T00:16:28.675Z,0
2017-01-13T00:17:09.189Z,0
2017-01-13T00:17:49.678Z,0
2017-01-13T00:18:30.196Z,0
2017-01-13T00:19:10.695Z,0
2017-01-13T00:19:51.190Z,0
2017-01-13T00:20:31.674Z,0
2017-01-13T00:21:12.172Z,0
2017-01-13T00:21:52.672Z,0
2017-01-13T00:22:33.161Z,0
2017-01-13T00:23:13.661Z,0
2017-01-13T00:23:54.151Z,0
2017-01-13T00:24:34.640Z,0
2017-01-13T00:25:15.122Z,0
2017-01-13T00:25:55.626Z,0
2017-01-13T00:26:36.112Z,0
2017-01-13T00:27:16.604Z,0
2017-01-13T00:27:57.084Z,0
2017-01-13T00:28:37.567Z,0
2017-01-13T00:29:18.048Z,0
2017-01-13T00:29:58.544Z,0
2017-01-13T00:30:39.041Z,0
2017-01-13T00:31:19.528Z,0
2017-01-13T00:32:00.022Z,0
2017-01-13T00:32:40.522Z,0
2017-01-13T00:33:21.092Z,0
2017-01-13T00:34:01.603Z,0
2017-01-13T00:34:42.111Z,0
2017-01-13T00:35:22.632Z,0
2017-01-13T00:36:03.114Z,0
2017-01-13T00:36:43.601Z,0
2017-01-13T00:37:24.106Z,0
2017-01-13T00:38:04.604Z,0
2017-01-13T00:38:45.107Z,0
2017-01-13T00:39:25.595Z,0
2017-01-13T00:40:06.087Z,0
2017-01-13T00:40:46.578Z,0
2017-01-13T00:41:27.065Z,0
2017-01-13T00:42:07.585Z,0
2017-01-13T00:42:48.086Z,0
2017-01-13T00:43:28.581Z,0
2017-01-13T00:44:09.076Z,0
2017-01-13T00:44:49.586Z,0
2017-01-13T00:45:30.071Z,0
2017-01-13T00:46:10.581Z,0
2017-01-13T00:46:51.066Z,0
2017-01-13T00:47:31.551Z,0
2017-01-13T00:48:12.057Z,0
2017-01-13T00:48:52.559Z,0
2017-01-13T00:49:33.054Z,0
2017-01-13T00:50:13.547Z,0
2017-01-13T00:50:54.037Z,0
2017-01-13T00:51:34.526Z,0
2017-01-13T00:52:15.026Z,0
2017-01-13T00:52:55.514Z,0
2017-01-13T00:53:36.003Z,0
2017-01-13T00:54:16.503Z,0
2017-01-13T00:54:56.989Z,0
2017-01-13T00:55:37.496Z,0
2017-01-13T00:56:18.000Z,0
2017-01-13T00:56:58.495Z,0
2017-01-13T00:57:38.991Z,0
2017-01-13T00:58:19.502Z,0
2017-01-13T00:58:59.986Z,0
2017-01-13T00:59:40.505Z,0
2017-01-13T01:00:20.995Z,0
2017-01-13T01:01:01.495Z,0
2017-01-13T01:01:41.983Z,0
2017-01-13T01:02:22.470Z,0
2017-01-13T01:03:02.966Z,0
2017-01-13T01:03:43.459Z,0
2017-01-13T01:04:23.947Z,0
2017-01-13T01:05:04.445Z,0
2017-01-13T01:05:44.940Z,0
2017-01-13T01:06:25.428Z,0
2017-01-13T01:07:05.918Z,0
2017-01-13T01:07:46.396Z,0
2017-01-13T01:08:26.901Z,0
2017-01-13T01:09:07.390Z,0
2017-01-13T01:09:47.874Z,0
2017-01-13T01:10:28.366Z,0
2017-01-13T01:11:08.858Z,0
2017-01-13T01:11:49.348Z,0
2017-01-13T01:12:29.835Z,0
2017-01-13T01:13:10.331Z,0
2017-01-13T01:13:50.829Z,0
2017-01-13T01:14:31.330Z,0
2017-01-13T01:15:11.827Z,0
2017-01-13T01:15:52.316Z,0
2017-01-13T01:16:32.810Z,0
2017-01-13T01:17:13.303Z,0
2017-01-13T01:17:53.801Z,0
2017-01-13T01:18:34.283Z,0
2017-01-13T01:19:14.847Z,0
2017-01-13T01:19:55.339Z,0
2017-01-13T01:20:35.827Z,0
2017-01-13T01:21:16.324Z,0
2017-01-13T01:21:56.819Z,0
2017-01-13T01:22:37.309Z,0
2017-01-13T01:23:17.821Z,0
2017-01-13T01:23:58.320Z,0
2017-01-13T01:24:38.819Z,0
2017-01-13T01:25:19.312Z,0
2017-01-13T01:25:59.794Z,0
2017-01-13T01:26:40.276Z,0
2017-01-13T01:27:20.760Z,0
2017-01-13T01:28:01.264Z,0
2017-01-13T01:28:41.751Z,0
2017-01-13T01:29:22.240Z,0
2017-01-13T01:30:02.722Z,0
2017-01-13T01:30:43.203Z,0
2017-01-13T01:31:23.685Z,0
2017-01-13T01:32:04.175Z,0
2017-01-13T01:32:44.681Z,0
2017-01-13T01:33:25.168Z,0
2017-01-13T01:34:05.672Z,0
2017-01-13T01:34:46.161Z,0
2017-01-13T01:35:26.646Z,0
2017-01-13T01:36:07.132Z,0
2017-01-13T01:36:47.619Z,0
2017-01-13T01:37:28.120Z,0
2017-01-13T01:38:08.609Z,0
2017-01-13T01:38:49.104Z,0
2017-01-13T01:39:29.603Z,0
2017-01-13T01:40:10.088Z,0
2017-01-13T01:40:50.596Z,0
2017-01-13T01:41:31.099Z,0
2017-01-13T01:42:11.597Z,0
2017-01-13T01:42:52.086Z,0
2017-01-13T01:43:32.575Z,0
2017-01-13T01:44:13.061Z,0
2017-01-13T01:44:53.564Z,0
2017-01-13T01:45:34.056Z,0
2017-01-13T01:46:14.551Z,0
2017-01-13T01:46:55.044Z,0
2017-01-13T01:47:35.532Z,0
2017-01-13T01:48:16.018Z,0
2017-01-13T01:48:56.507Z,0
2017-01-13T01:49:37.004Z,0
2017-01-13T01:51:49.823Z,0
2017-01-13T01:52:30.309Z,0
2017-01-13T01:53:10.805Z,0
2017-01-13T01:53:51.297Z,0
2017-01-13T01:54:31.801Z,0
2017-01-13T01:55:12.298Z,0
2017-01-13T01:55:52.793Z,0
2017-01-13T01:56:33.277Z,0
2017-01-13T01:57:13.759Z,0
2017-01-13T01:57:54.271Z,0
2017-01-13T01:58:34.753Z,0
2017-01-13T01:59:15.247Z,0
2017-01-13T01:59:55.854Z,0
2017-01-13T02:00:36.235Z,0
2017-01-13T02:01:16.716Z,0
2017-01-13T02:01:57.194Z,0
2017-01-13T02:02:37.681Z,0
2017-01-13T02:03:18.166Z,0
2017-01-13T02:03:58.650Z,0
2017-01-13T02:04:39.142Z,0
2017-01-13T02:05:19.635Z,0
2017-01-13T02:06:00.125Z,0
2017-01-13T02:06:40.632Z,0
2017-01-13T02:07:21.126Z,0
2017-01-13T02:08:01.611Z,0
2017-01-13T02:08:42.102Z,0
2017-01-13T02:09:22.605Z,0
2017-01-13T02:10:03.090Z,0
2017-01-13T02:10:43.580Z,0
2017-01-13T02:11:24.080Z,0
2017-01-13T02:12:04.570Z,0
2017-01-13T02:12:45.056Z,0
2017-01-13T02:13:25.536Z,0
2017-01-13T02:14:06.028Z,0
2017-01-13T02:17:56.177Z,0
2017-01-13T02:18:36.673Z,0
2017-01-13T02:19:17.173Z,0
2017-01-13T02:19:57.671Z,0
2017-01-13T02:20:38.171Z,0
2017-01-13T02:21:18.691Z,0
2017-01-13T02:21:59.175Z,0
2017-01-13T02:22:39.660Z,0
2017-01-13T02:23:20.141Z,0
2017-01-13T02:24:00.655Z,0
2017-01-13T02:24:41.141Z,0
2017-01-13T02:25:21.625Z,0
2017-01-13T02:26:02.136Z,0
2017-01-13T02:26:42.626Z,0
2017-01-13T02:27:23.117Z,0
2017-01-13T02:28:03.615Z,0
2017-01-13T02:28:44.100Z,0
2017-01-13T02:29:24.582Z,0
2017-01-13T02:30:05.065Z,0
2017-01-13T02:30:45.547Z,0
2017-01-13T02:31:26.026Z,0
2017-01-13T02:32:06.533Z,0
2017-01-13T02:32:47.083Z,0
2017-01-13T02:33:27.571Z,0
2017-01-13T02:34:08.056Z,0
2017-01-13T02:34:48.550Z,0
2017-01-13T02:35:29.058Z,0
2017-01-13T02:36:09.546Z,0
2017-01-13T02:36:50.034Z,0
2017-01-13T02:37:30.553Z,0
2017-01-13T02:38:11.051Z,0
2017-01-13T02:38:51.551Z,0
2017-01-13T02:39:32.047Z,0
2017-01-13T02:40:12.535Z,0
2017-01-13T02:40:53.031Z,0
2017-01-13T02:41:33.545Z,0
2017-01-13T02:42:14.050Z,0
2017-01-13T02:42:54.540Z,0
2017-01-13T02:43:35.022Z,0
2017-01-13T02:44:15.517Z,0
2017-01-13T02:44:56.013Z,0
2017-01-13T02:45:36.499Z,0
2017-01-13T02:46:16.997Z,0
2017-01-13T02:46:57.489Z,0
2017-01-13T02:47:37.975Z,0
2017-01-13T02:48:18.453Z,0
2017-01-13T02:48:58.953Z,0
2017-01-13T02:49:39.427Z,0
2017-01-13T02:50:20.040Z,0
2017-01-13T02:51:00.863Z,0
2017-01-13T02:51:41.492Z,0
2017-01-13T02:52:22.010Z,0
2017-01-13T02:53:02.548Z,0
2017-01-13T02:53:43.035Z,0
2017-01-13T02:54:23.526Z,0
2017-01-13T02:55:04.069Z,0
2017-01-13T02:55:44.552Z,0
2017-01-13T02:56:25.051Z,0
2017-01-13T02:57:05.542Z,0
2017-01-13T02:57:46.029Z,0
2017-01-13T02:58:26.521Z,0
2017-01-13T02:59:07.003Z,0
2017-01-13T02:59:47.529Z,0
2017-01-13T03:00:28.008Z,0
2017-01-13T03:01:08.508Z,0
2017-01-13T03:01:48.996Z,0
2017-01-13T03:02:29.492Z,0
2017-01-13T03:03:09.991Z,0
2017-01-13T03:03:50.484Z,0
2017-01-13T03:04:30.990Z,0
2017-01-13T03:05:11.484Z,0
2017-01-13T03:05:51.991Z,0
2017-01-13T03:06:32.475Z,0
2017-01-13T03:07:12.963Z,0
2017-01-13T03:07:53.455Z,0
2017-01-13T03:08:33.953Z,0
2017-01-13T03:09:14.439Z,0
2017-01-13T03:09:54.949Z,0
2017-01-13T03:10:35.431Z,0
2017-01-13T03:11:15.921Z,0
2017-01-13T03:11:56.405Z,0
2017-01-13T03:12:36.888Z,0
2017-01-13T03:13:17.382Z,0
2017-01-13T03:13:57.877Z,0
2017-01-13T03:14:38.366Z,0
2017-01-13T03:15:18.876Z,0
2017-01-13T03:15:59.360Z,0
2017-01-13T03:16:39.852Z,0
2017-01-13T03:17:20.340Z,0
2017-01-13T03:18:00.875Z,0
2017-01-13T03:18:41.364Z,0
2017-01-13T03:19:21.866Z,0
2017-01-13T03:20:02.362Z,0
2017-01-13T03:20:42.848Z,0
2017-01-13T03:21:23.329Z,0
2017-01-13T03:22:03.823Z,0
2017-01-13T03:22:44.314Z,0
2017-01-13T03:23:24.812Z,0
2017-01-13T03:24:05.287Z,0
2017-01-13T03:24:45.772Z,0
2017-01-13T03:25:26.264Z,0
2017-01-13T03:26:06.806Z,0
2017-01-13T03:26:47.289Z,0
2017-01-13T03:27:27.781Z,0
2017-01-13T03:28:08.276Z,0
2017-01-13T03:28:48.765Z,0
2017-01-13T03:29:29.240Z,0
2017-01-13T03:30:09.722Z,0
2017-01-13T03:30:50.204Z,0
2017-01-13T03:31:30.697Z,0
2017-01-13T03:32:11.186Z,0
2017-01-13T03:32:51.694Z,0
2017-01-13T03:33:32.181Z,0
2017-01-13T03:34:12.664Z,0
2017-01-13T03:34:53.157Z,0
2017-01-13T03:35:33.651Z,0
2017-01-13T03:36:14.152Z,0
2017-01-13T03:36:54.647Z,0
2017-01-13T03:37:35.135Z,0
2017-01-13T03:38:15.624Z,0
2017-01-13T03:38:56.181Z,0
2017-01-13T03:39:36.661Z,0
2017-01-13T03:40:17.170Z,0
2017-01-13T03:40:57.659Z,0
2017-01-13T03:41:38.161Z,0
2017-01-13T03:42:18.646Z,0
2017-01-13T03:42:59.146Z,0
2017-01-13T03:43:39.642Z,0
2017-01-13T03:44:20.130Z,0
2017-01-13T03:45:00.617Z,0
2017-01-13T03:45:41.113Z,0
2017-01-13T03:46:21.605Z,0
2017-01-13T03:47:02.100Z,0
2017-01-13T03:47:42.594Z,0
2017-01-13T03:48:23.088Z,0
2017-01-13T03:49:03.603Z,0
2017-01-13T03:49:44.087Z,0
2017-01-13T03:50:24.586Z,0
2017-01-13T03:51:05.085Z,0
2017-01-13T03:51:45.578Z,0
2017-01-13T03:52:26.062Z,0
2017-01-13T03:53:06.541Z,0
2017-01-13T03:53:47.034Z,0
2017-01-13T03:54:27.527Z,0
2017-01-13T03:55:08.015Z,0
2017-01-13T03:55:48.505Z,0
2017-01-13T03:56:29.012Z,0
2017-01-13T03:57:09.498Z,0
2017-01-13T03:57:49.980Z,0
2017-01-13T03:58:30.468Z,0
2017-01-13T03:59:10.954Z,0
2017-01-13T03:59:51.433Z,0
2017-01-13T04:00:31.922Z,0
2017-01-13T04:01:12.424Z,0
2017-01-13T04:01:52.924Z,0
2017-01-13T04:02:33.400Z,0
2017-01-13T04:03:13.881Z,0
2017-01-13T04:03:54.370Z,0
2017-01-13T04:04:34.867Z,0
2017-01-13T04:05:15.342Z,0
2017-01-13T04:05:55.829Z,0
2017-01-13T04:06:36.317Z,0
2017-01-13T04:07:16.802Z,0
2017-01-13T04:07:57.294Z,0
2017-01-13T04:08:37.789Z,0
2017-01-13T04:09:18.280Z,0
2017-01-13T04:11:51.367Z,0
2017-01-13T04:12:31.853Z,0
2017-01-13T04:13:12.341Z,0
2017-01-13T04:13:52.820Z,0
2017-01-13T04:14:33.304Z,0
2017-01-13T04:15:13.800Z,0
2017-01-13T04:15:54.303Z,0
2017-01-13T04:16:34.796Z,0
2017-01-13T04:17:15.299Z,0
2017-01-13T04:17:55.782Z,0
2017-01-13T04:18:36.272Z,0
2017-01-13T04:19:16.756Z,0
2017-01-13T04:19:57.255Z,0
2017-01-13T04:20:37.743Z,0
2017-01-13T04:21:18.232Z,0
2017-01-13T04:21:58.740Z,0
2017-01-13T04:22:39.229Z,0
2017-01-13T04:23:19.713Z,0
2017-01-13T04:24:00.194Z,0
2017-01-13T04:24:40.682Z,0
2017-01-13T04:25:21.187Z,0
2017-01-13T04:26:01.677Z,0
2017-01-13T04:26:42.159Z,0
2017-01-13T04:27:22.639Z,0
2017-01-13T04:28:03.132Z,0
2017-01-13T04:28:43.633Z,0
2017-01-13T04:29:24.113Z,0
2017-01-13T04:30:04.606Z,0
2017-01-13T04:30:45.089Z,0
2017-01-13T04:31:25.594Z,0
2017-01-13T04:32:06.077Z,0
2017-01-13T04:32:46.562Z,0
2017-01-13T04:33:27.054Z,0
2017-01-13T04:34:07.552Z,0
2017-01-13T04:34:48.036Z,0
2017-01-13T04:35:28.530Z,0
2017-01-13T04:36:09.011Z,0
2017-01-13T04:36:49.501Z,0
2017-01-13T04:37:30.015Z,0
2017-01-13T04:38:10.517Z,0
2017-01-13T04:38:51.020Z,0
2017-01-13T04:39:31.518Z,0
2017-01-13T04:40:12.009Z,0
2017-01-13T04:40:52.511Z,0
2017-01-13T04:41:33.003Z,0
2017-01-13T04:42:13.491Z,0
2017-01-13T04:42:53.977Z,0
2017-01-13T04:43:34.469Z,0
2017-01-13T04:44:14.960Z,0
2017-01-13T04:44:55.449Z,0
2017-01-13T04:45:35.960Z,0
2017-01-13T04:46:16.448Z,0
2017-01-13T04:46:56.935Z,0
2017-01-13T04:47:37.416Z,0
2017-01-13T04:48:17.930Z,0
2017-01-13T04:48:58.414Z,0
2017-01-13T04:49:38.910Z,0
2017-01-13T04:50:19.404Z,0
2017-01-13T04:50:59.892Z,0
2017-01-13T04:51:40.406Z,0
2017-01-13T04:52:20.891Z,0
2017-01-13T04:53:01.383Z,0
2017-01-13T04:53:41.904Z,0
2017-01-13T04:54:22.405Z,0
2017-01-13T04:55:02.903Z,0
2017-01-13T04:55:43.404Z,0
2017-01-13T04:56:23.888Z,0
2017-01-13T04:57:04.378Z,0
2017-01-13T04:57:44.862Z,0
2017-01-13T04:58:25.344Z,0
2017-01-13T04:59:05.850Z,0
2017-01-13T04:59:46.332Z,0
2017-01-13T05:00:26.819Z,0
2017-01-13T05:01:07.300Z,0
2017-01-13T05:01:47.790Z,0
2017-01-13T05:02:28.294Z,0
2017-01-13T05:03:08.776Z,0
2017-01-13T05:03:49.261Z,0
2017-01-13T05:04:29.744Z,0
2017-01-13T05:05:10.229Z,0
2017-01-13T05:05:50.735Z,0
2017-01-13T05:06:31.212Z,0
2017-01-13T05:07:11.841Z,0
2017-01-13T05:07:52.321Z,0
2017-01-13T05:08:32.812Z,0
2017-01-13T05:09:13.294Z,0
2017-01-13T05:09:53.789Z,0
2017-01-13T05:12:07.472Z,0
2017-01-13T05:12:47.962Z,0
2017-01-13T05:13:28.451Z,0
2017-01-13T05:14:08.951Z,0
2017-01-13T05:14:49.466Z,0
2017-01-13T05:15:29.951Z,0
2017-01-13T05:16:10.445Z,0
2017-01-13T05:16:50.952Z,0
2017-01-13T05:17:31.438Z,0
2017-01-13T05:18:11.931Z,0
2017-01-13T05:18:52.428Z,0
2017-01-13T05:19:32.911Z,0
2017-01-13T05:20:13.394Z,0
2017-01-13T05:20:53.910Z,0
2017-01-13T05:21:34.394Z,0
2017-01-13T05:22:14.882Z,0
2017-01-13T05:22:55.364Z,0
2017-01-13T05:23:35.874Z,0
2017-01-13T05:24:16.359Z,0
2017-01-13T05:24:56.855Z,0
2017-01-13T05:25:37.353Z,0
2017-01-13T05:26:17.840Z,0
2017-01-13T05:26:58.333Z,0
2017-01-13T05:27:38.838Z,0
2017-01-13T05:28:19.323Z,0
2017-01-13T05:28:59.813Z,0
2017-01-13T05:29:40.301Z,0
2017-01-13T05:30:20.796Z,0
2017-01-13T05:31:01.283Z,0
2017-01-13T05:31:41.769Z,0
2017-01-13T05:32:22.250Z,0
2017-01-13T05:33:02.747Z,0
2017-01-13T05:33:43.240Z,0
2017-01-13T05:34:23.729Z,0
2017-01-13T05:35:04.213Z,0
2017-01-13T05:35:44.694Z,0
2017-01-13T05:36:25.182Z,0
2017-01-13T05:37:05.663Z,0
2017-01-13T05:37:46.143Z,0
2017-01-13T05:38:26.635Z,0
2017-01-13T05:39:07.136Z,0
2017-01-13T05:39:47.619Z,0
2017-01-13T05:40:28.108Z,0
2017-01-13T05:41:08.597Z,0
2017-01-13T05:41:49.093Z,0
2017-01-13T05:42:29.615Z,0
2017-01-13T05:43:10.107Z,0
2017-01-13T05:43:50.599Z,0
2017-01-13T05:44:31.095Z,0
2017-01-13T05:45:11.583Z,0
2017-01-13T05:45:52.080Z,0
2017-01-13T05:46:32.572Z,0
2017-01-13T05:47:13.056Z,0
2017-01-13T05:47:53.538Z,0
2017-01-13T05:48:34.024Z,0
2017-01-13T05:49:14.513Z,0
2017-01-13T05:49:54.994Z,0
2017-01-13T05:50:35.478Z,0
2017-01-13T05:51:15.967Z,0
2017-01-13T05:51:56.446Z,0
2017-01-13T05:52:36.929Z,0
2017-01-13T05:53:17.430Z,0
2017-01-13T05:53:57.922Z,0
2017-01-13T05:54:38.408Z,0
2017-01-13T05:55:18.894Z,0
2017-01-13T05:55:59.381Z,0
2017-01-13T05:56:39.876Z,0
2017-01-13T05:57:20.364Z,0
2017-01-13T05:58:00.861Z,0
2017-01-13T05:58:41.355Z,0
2017-01-13T05:59:21.845Z,0
2017-01-13T06:00:02.334Z,0
2017-01-13T06:00:42.819Z,0
2017-01-13T06:01:23.310Z,0
2017-01-13T06:02:03.802Z,0
2017-01-13T06:02:44.290Z,0
2017-01-13T06:03:24.780Z,0
2017-01-13T06:04:05.264Z,0
2017-01-13T06:04:45.771Z,0
2017-01-13T06:05:26.256Z,0
2017-01-13T06:06:06.748Z,0
2017-01-13T06:06:47.253Z,0
2017-01-13T06:07:27.746Z,0
2017-01-13T06:08:08.323Z,0
2017-01-13T06:08:48.809Z,0
2017-01-13T06:09:29.299Z,0
2017-01-13T06:10:09.795Z,0
2017-01-13T06:10:50.284Z,0
2017-01-13T06:11:30.792Z,0
2017-01-13T06:12:11.285Z,0
2017-01-13T06:12:51.776Z,0
2017-01-13T06:13:32.282Z,0
2017-01-13T06:14:12.778Z,0
2017-01-13T06:14:53.279Z,0
2017-01-13T06:15:33.769Z,0
2017-01-13T06:16:14.248Z,0
2017-01-13T06:16:54.777Z,0
2017-01-13T06:17:35.289Z,0
2017-01-13T06:18:15.787Z,0
2017-01-13T06:18:56.299Z,0
2017-01-13T06:19:36.790Z,0
2017-01-13T06:20:17.280Z,0
2017-01-13T06:20:57.767Z,0
2017-01-13T06:21:38.255Z,0
2017-01-13T06:22:18.715Z,0
2017-01-13T06:22:59.232Z,0
2017-01-13T06:23:39.724Z,0
2017-01-13T06:24:20.211Z,0
2017-01-13T06:25:00.710Z,0
2017-01-13T06:25:41.197Z,0
2017-01-13T06:26:21.686Z,0
2017-01-13T06:27:02.167Z,0
2017-01-13T06:27:42.654Z,0
2017-01-13T06:28:23.142Z,0
2017-01-13T06:29:03.642Z,0
2017-01-13T06:29:44.129Z,0
2017-01-13T06:30:24.610Z,0
2017-01-13T06:31:05.119Z,0
2017-01-13T06:31:45.615Z,0
2017-01-13T06:32:26.101Z,0
2017-01-13T06:33:06.586Z,0
2017-01-13T06:33:47.094Z,0
2017-01-13T06:34:27.577Z,0
2017-01-13T06:35:08.090Z,0
2017-01-13T06:35:48.579Z,0
2017-01-13T06:36:29.071Z,0
2017-01-13T06:37:09.568Z,0
2017-01-13T06:37:50.054Z,0
2017-01-13T06:38:30.543Z,0
2017-01-13T06:39:11.045Z,0
2017-01-13T06:39:51.548Z,0
2017-01-13T06:40:32.013Z,0
2017-01-13T06:41:12.500Z,0
2017-01-13T06:41:52.985Z,0
2017-01-13T06:42:33.469Z,0
2017-01-13T06:43:13.971Z,0
2017-01-13T06:43:54.459Z,0
2017-01-13T06:44:34.944Z,0
2017-01-13T06:45:15.437Z,0
2017-01-13T06:45:55.934Z,0
2017-01-13T06:46:36.426Z,0
2017-01-13T06:47:16.927Z,0
2017-01-13T06:47:57.418Z,0
2017-01-13T06:48:37.908Z,0
2017-01-13T06:49:18.392Z,0
2017-01-13T06:49:58.882Z,0
2017-01-13T06:50:39.400Z,0
2017-01-13T06:51:19.897Z,0
2017-01-13T06:52:00.420Z,0
2017-01-13T06:52:40.905Z,0
2017-01-13T06:53:21.398Z,0
2017-01-13T06:54:01.895Z,0
2017-01-13T06:54:42.385Z,0
2017-01-13T06:55:22.878Z,0
2017-01-13T06:56:03.383Z,0
2017-01-13T06:56:43.869Z,0
2017-01-13T06:57:24.363Z,0
2017-01-13T06:58:04.859Z,0
2017-01-13T06:58:45.347Z,0
2017-01-13T06:59:25.842Z,0
2017-01-13T07:00:06.344Z,0
2017-01-13T07:00:46.830Z,0
2017-01-13T07:01:27.322Z,0
2017-01-13T07:02:07.831Z,0
2017-01-13T07:02:48.337Z,0
2017-01-13T07:03:28.839Z,0
2017-01-13T07:04:09.333Z,0
2017-01-13T07:04:49.822Z,0
2017-01-13T07:05:30.311Z,0
2017-01-13T07:06:10.808Z,0
2017-01-13T07:06:51.283Z,4
2017-01-13T07:07:31.778Z,4
2017-01-13T07:08:12.273Z,4
2017-01-13T07:08:52.765Z,4
2017-01-13T07:09:33.287Z,4
2017-01-13T07:10:13.778Z,4
2017-01-13T07:10:54.267Z,4
2017-01-13T07:11:35.286Z,4
2017-01-13T07:12:15.786Z,4
2017-01-13T07:12:56.292Z,4
2017-01-13T07:13:36.776Z,4
2017-01-13T07:14:17.293Z,4
2017-01-13T07:14:57.779Z,4
2017-01-13T07:15:38.291Z,8
2017-01-13T07:16:18.779Z,8
2017-01-13T07:16:59.310Z,8
2017-01-13T07:17:39.776Z,8
2017-01-13T07:18:20.280Z,8
2017-01-13T07:19:00.774Z,8
2017-01-13T07:19:41.266Z,8
2017-01-13T07:20:21.764Z,8
2017-01-13T07:21:02.244Z,12
2017-01-13T07:21:42.734Z,12
2017-01-13T07:22:23.220Z,12
2017-01-13T07:23:03.705Z,12
2017-01-13T07:23:44.185Z,12
2017-01-13T07:24:24.832Z,12
2017-01-13T07:25:05.316Z,16
2017-01-13T07:25:45.804Z,16
2017-01-13T07:26:26.287Z,16
2017-01-13T07:27:06.774Z,16
2017-01-13T07:27:47.279Z,20
2017-01-13T07:28:27.762Z,20
2017-01-13T07:29:08.271Z,24
2017-01-13T07:29:48.768Z,20
2017-01-13T07:30:29.247Z,24
2017-01-13T07:31:09.726Z,28
2017-01-13T07:31:50.213Z,24
2017-01-13T07:32:30.711Z,24
2017-01-13T07:33:11.214Z,24
2017-01-13T07:33:51.701Z,32
2017-01-13T07:34:32.209Z,32
2017-01-13T07:35:12.699Z,32
2017-01-13T07:35:53.193Z,36
2017-01-13T07:36:33.678Z,36
2017-01-13T07:37:14.172Z,36
2017-01-13T07:37:54.656Z,36
2017-01-13T07:38:35.170Z,40
2017-01-13T07:39:15.643Z,44
2017-01-13T07:39:56.127Z,44
2017-01-13T07:40:36.621Z,44
2017-01-13T07:41:17.106Z,88
2017-01-13T07:41:57.586Z,116
2017-01-13T07:42:38.065Z,136
2017-01-13T07:43:18.560Z,144
2017-01-13T07:43:59.053Z,144
2017-01-13T07:44:39.528Z,148
2017-01-13T07:45:20.024Z,148
2017-01-13T07:46:00.511Z,144
2017-01-13T07:46:41.004Z,148
2017-01-13T07:47:21.501Z,156
2017-01-13T07:48:01.988Z,152
2017-01-13T07:48:42.485Z,148
2017-01-13T07:49:22.991Z,148
2017-01-13T07:50:03.474Z,156
2017-01-13T07:50:43.958Z,160
2017-01-13T07:51:24.437Z,156
2017-01-13T07:52:05.004Z,160
2017-01-13T07:52:45.493Z,160
2017-01-13T07:53:25.994Z,168
2017-01-13T07:54:06.563Z,176
2017-01-13T07:54:46.972Z,176
2017-01-13T07:55:27.462Z,176
2017-01-13T07:56:07.947Z,184
2017-01-13T07:56:48.432Z,188
2017-01-13T07:57:28.948Z,188
2017-01-13T07:58:09.433Z,192
2017-01-13T07:58:49.918Z,196
2017-01-13T07:59:30.399Z,212
2017-01-13T08:00:10.895Z,212
2017-01-13T08:00:51.424Z,212
2017-01-13T08:01:31.902Z,212
2017-01-13T08:02:12.415Z,212
2017-01-13T08:02:52.904Z,220
2017-01-13T08:03:33.391Z,224
2017-01-13T08:04:13.873Z,236
2017-01-13T08:04:54.387Z,224
2017-01-13T08:05:34.872Z,232
2017-01-13T08:06:15.405Z,232
2017-01-13T08:06:55.871Z,244
2017-01-13T08:07:36.356Z,252
2017-01-13T08:08:16.859Z,236
2017-01-13T08:08:57.346Z,256
2017-01-13T08:09:37.834Z,272
2017-01-13T08:10:18.932Z,272
2017-01-13T08:10:58.832Z,284
2017-01-13T08:11:39.343Z,280
2017-01-13T08:12:19.830Z,280
2017-01-13T08:13:00.351Z,300
2017-01-13T08:13:40.839Z,312
2017-01-13T08:14:21.330Z,320
2017-01-13T08:15:01.829Z,332
2017-01-13T08:15:42.297Z,360
2017-01-13T08:16:22.789Z,360
2017-01-13T08:17:03.283Z,356
2017-01-13T08:17:45.926Z,372
2017-01-13T08:18:26.905Z,384
2017-01-13T08:19:07.387Z,356
2017-01-13T08:19:47.880Z,368
2017-01-13T08:20:29.491Z,376
2017-01-13T08:21:12.527Z,392
2017-01-13T08:21:53.037Z,396
2017-01-13T08:22:33.527Z,368
2017-01-13T08:23:14.028Z,388
2017-01-13T08:23:54.516Z,376
2017-01-13T08:24:35.001Z,364
2017-01-13T08:25:15.494Z,348
2017-01-13T08:25:55.998Z,348
2017-01-13T08:26:36.488Z,344
2017-01-13T08:27:16.968Z,348
2017-01-13T08:27:57.464Z,352
2017-01-13T08:28:37.959Z,344
2017-01-13T08:29:18.450Z,364
2017-01-13T08:29:58.941Z,352
2017-01-13T08:30:39.452Z,348
2017-01-13T08:31:19.952Z,348
2017-01-13T08:32:00.451Z,332
2017-01-13T08:32:40.956Z,356
2017-01-13T08:33:21.446Z,360
2017-01-13T08:34:01.936Z,360
2017-01-13T08:34:42.441Z,320
2017-01-13T08:35:22.928Z,352
2017-01-13T08:36:03.416Z,340
2017-01-13T08:36:43.905Z,340
2017-01-13T08:37:24.401Z,332
2017-01-13T08:38:04.886Z,336
2017-01-13T08:38:45.393Z,356
2017-01-13T08:39:25.892Z,348
2017-01-13T08:40:06.405Z,356
2017-01-13T08:40:46.900Z,364
2017-01-13T08:41:27.395Z,356
2017-01-13T08:42:07.886Z,348
2017-01-13T08:42:48.373Z,332
2017-01-13T08:43:28.873Z,344
2017-01-13T08:44:09.361Z,332
2017-01-13T08:44:49.849Z,312
2017-01-13T08:45:30.341Z,304
2017-01-13T08:46:10.822Z,316
2017-01-13T08:46:51.298Z,336
2017-01-13T08:47:31.793Z,332
2017-01-13T08:48:12.642Z,356
2017-01-13T08:48:53.167Z,392
2017-01-13T08:49:33.659Z,380
2017-01-13T08:50:14.147Z,416
2017-01-13T08:50:54.666Z,408
2017-01-13T08:51:35.193Z,412
2017-01-13T08:52:15.693Z,388
2017-01-13T08:52:56.175Z,400
2017-01-13T08:53:36.695Z,408
2017-01-13T08:54:17.185Z,412
2017-01-13T08:54:57.665Z,464
2017-01-13T08:55:38.144Z,424
2017-01-13T08:56:18.637Z,408
2017-01-13T08:56:59.134Z,424
2017-01-13T08:57:39.627Z,424
2017-01-13T08:58:20.117Z,416
2017-01-13T08:59:00.611Z,424
2017-01-13T08:59:41.103Z,440
2017-01-13T09:00:21.592Z,464
2017-01-13T09:01:02.086Z,520
2017-01-13T09:01:43.576Z,560
2017-01-13T09:02:24.161Z,516
2017-01-13T09:03:04.656Z,528
2017-01-13T09:03:45.158Z,540
2017-01-13T09:04:25.645Z,492
2017-01-13T09:05:06.118Z,532
2017-01-13T09:05:46.606Z,484
2017-01-13T09:06:27.199Z,548
2017-01-13T09:07:07.701Z,528
2017-01-13T09:07:48.192Z,508
2017-01-13T09:08:28.707Z,592
2017-01-13T09:09:09.198Z,552
2017-01-13T09:09:49.698Z,564
2017-01-13T09:10:30.252Z,612
2017-01-13T09:11:10.746Z,508
2017-01-13T09:11:51.224Z,464
2017-01-13T09:12:31.701Z,428
2017-01-13T09:13:12.188Z,436
2017-01-13T09:13:52.672Z,444
2017-01-13T09:14:33.166Z,440
2017-01-13T09:15:13.668Z,444
2017-01-13T09:15:54.349Z,480
2017-01-13T09:16:34.919Z,484
2017-01-13T09:17:15.401Z,504
2017-01-13T09:17:55.894Z,488
2017-01-13T09:18:36.372Z,488
2017-01-13T09:19:16.893Z,484
2017-01-13T09:19:57.395Z,504
2017-01-13T09:20:37.881Z,524
2017-01-13T09:21:18.382Z,580
2017-01-13T09:21:58.860Z,592
2017-01-13T09:22:39.345Z,608
2017-01-13T09:23:19.834Z,580
2017-01-13T09:24:00.325Z,580
2017-01-13T09:24:40.842Z,576
2017-01-13T09:25:21.338Z,596
2017-01-13T09:26:01.845Z,588
2017-01-13T09:26:42.340Z,588
2017-01-13T09:27:22.825Z,604
2017-01-13T09:28:03.336Z,564
2017-01-13T09:28:43.824Z,576
2017-01-13T09:29:24.338Z,532
2017-01-13T09:30:04.823Z,544
2017-01-13T09:30:45.331Z,580
2017-01-13T09:31:25.825Z,596
2017-01-13T09:32:06.320Z,584
2017-01-13T09:32:46.805Z,628
2017-01-13T09:33:27.313Z,584
2017-01-13T09:34:07.796Z,560
2017-01-13T09:36:25.744Z,700
2017-01-13T09:37:06.229Z,712
2017-01-13T09:37:46.713Z,752
2017-01-13T09:38:27.231Z,768
2017-01-13T09:39:07.743Z,716
2017-01-13T09:39:48.225Z,740
2017-01-13T09:40:28.719Z,768
2017-01-13T09:41:09.212Z,804
2017-01-13T09:41:49.711Z,756
2017-01-13T09:42:30.211Z,736
2017-01-13T09:43:10.686Z,764
2017-01-13T09:43:51.166Z,776
2017-01-13T09:44:31.657Z,728
2017-01-13T09:45:12.158Z,668
2017-01-13T09:45:52.650Z,676
2017-01-13T09:46:33.156Z,556
2017-01-13T09:47:13.638Z,564
2017-01-13T09:47:54.131Z,600
2017-01-13T09:48:34.611Z,556
2017-01-13T09:49:15.103Z,552
2017-01-13T09:49:55.598Z,592
2017-01-13T09:50:36.090Z,576
2017-01-13T09:51:16.569Z,572
2017-01-13T09:51:57.212Z,536
2017-01-13T09:52:37.712Z,616
2017-01-13T09:53:18.214Z,680
2017-01-13T09:53:58.708Z,760
2017-01-13T09:54:39.195Z,668
2017-01-13T09:55:19.679Z,608
2017-01-13T09:56:00.196Z,728
2017-01-13T09:56:40.695Z,692
2017-01-13T09:57:21.226Z,644
2017-01-13T09:58:01.727Z,700